createdAt,value
2022-08-07T00:00:40.046Z,26.70
2022-08-07T00:03:09.246Z,26.70
2022-08-07T00:05:37.505Z,26.70
2022-08-07T00:08:07.869Z,26.70
2022-08-07T00:10:36.344Z,26.70
2022-08-07T00:13:25.680Z,26.70
2022-08-07T00:15:56.305Z,26.70
2022-08-07T00:18:27.108Z,26.60
2022-08-07T00:20:57.592Z,26.70
2022-08-07T00:23:30.424Z,26.70
2022-08-07T00:26:02.881Z,26.70
2022-08-07T00:28:45.792Z,26.70
2022-08-07T00:31:37.482Z,26.70
2022-08-07T00:34:09.099Z,26.70
2022-08-07T00:36:38.556Z,26.60
2022-08-07T00:39:16.586Z,26.60
2022-08-07T00:41:53.891Z,26.70
2022-08-07T00:44:30.840Z,26.70
2022-08-07T00:47:02.872Z,26.70
2022-08-07T00:50:18.970Z,26.60
2022-08-07T00:52:20.075Z,26.70
2022-08-07T00:54:53.638Z,26.70
2022-08-07T00:57:23.085Z,26.60
2022-08-07T00:59:53.583Z,26.70
2022-08-07T01:02:29.115Z,26.70
2022-08-07T01:04:58.906Z,26.60
2022-08-07T01:07:28.371Z,26.70
2022-08-07T01:10:06.783Z,26.70
2022-08-07T01:12:54.186Z,26.70
2022-08-07T01:15:23.095Z,26.60
2022-08-07T01:18:06.030Z,26.70
2022-08-07T01:20:42.973Z,26.70
2022-08-07T01:23:13.161Z,26.70
2022-08-07T01:25:55.672Z,26.60
2022-08-07T01:28:24.797Z,26.60
2022-08-07T01:30:53.668Z,26.60
2022-08-07T01:33:22.488Z,26.70
2022-08-07T01:35:53.266Z,26.60
2022-08-07T01:38:24.841Z,26.60
2022-08-07T01:40:54.795Z,26.60
2022-08-07T01:43:25.999Z,26.60
2022-08-07T01:45:54.736Z,26.60
2022-08-07T01:48:29.694Z,26.60
2022-08-07T01:51:08.161Z,26.60
2022-08-07T01:54:09.151Z,26.50
2022-08-07T01:56:49.337Z,26.50
2022-08-07T01:59:30.720Z,26.60
2022-08-07T02:02:04.484Z,26.60
2022-08-07T02:04:39.742Z,26.60
2022-08-07T02:07:25.196Z,26.60
2022-08-07T02:10:06.275Z,26.50
2022-08-07T02:12:36.217Z,26.50
2022-08-07T02:15:06.685Z,26.60
2022-08-07T02:17:35.387Z,26.50
2022-08-07T02:20:10.020Z,26.50
2022-08-07T02:22:45.547Z,26.50
2022-08-07T02:25:17.488Z,26.50
2022-08-07T02:27:51.291Z,26.50
2022-08-07T02:30:21.174Z,26.50
2022-08-07T02:33:00.729Z,26.40
2022-08-07T02:36:29.578Z,26.50
2022-08-07T02:38:31.748Z,26.50
2022-08-07T02:41:03.734Z,26.50
2022-08-07T02:43:32.510Z,26.40
2022-08-07T02:46:02.364Z,26.40
2022-08-07T02:48:31.002Z,26.50
2022-08-07T02:50:59.739Z,26.50
2022-08-07T02:53:30.070Z,26.50
2022-08-07T02:56:03.430Z,26.50
2022-08-07T02:58:34.789Z,26.40
2022-08-07T03:01:03.413Z,26.50
2022-08-07T03:03:42.247Z,26.50
2022-08-07T03:06:26.072Z,26.50
2022-08-07T03:09:01.872Z,26.50
2022-08-07T03:11:32.751Z,26.40
2022-08-07T03:14:02.605Z,26.50
2022-08-07T03:16:31.185Z,26.40
2022-08-07T03:18:59.433Z,26.50
2022-08-07T03:21:33.048Z,26.50
2022-08-07T03:24:19.789Z,26.40
2022-08-07T03:26:58.923Z,26.40
2022-08-07T03:29:29.597Z,26.40
2022-08-07T03:31:57.852Z,26.40
2022-08-07T03:34:27.557Z,26.50
2022-08-07T03:36:57.360Z,26.40
2022-08-07T03:39:59.266Z,26.40
2022-08-07T03:42:14.520Z,26.40
2022-08-07T03:44:47.232Z,26.40
2022-08-07T03:47:22.709Z,26.40
2022-08-07T03:49:52.411Z,26.40
2022-08-07T03:52:22.657Z,26.40
2022-08-07T03:54:58.156Z,26.40
2022-08-07T03:58:35.389Z,26.50
2022-08-07T04:00:30.434Z,26.40
2022-08-07T04:03:04.395Z,26.30
2022-08-07T04:05:40.331Z,26.40
2022-08-07T04:08:11.638Z,26.40
2022-08-07T04:10:40.170Z,26.40
2022-08-07T04:13:15.372Z,26.40
2022-08-07T04:15:45.581Z,26.40
2022-08-07T04:18:57.257Z,26.40
2022-08-07T04:21:03.359Z,26.30
2022-08-07T04:23:43.501Z,26.30
2022-08-07T04:26:23.752Z,26.30
2022-08-07T04:28:56.628Z,26.30
2022-08-07T04:31:38.731Z,26.30
2022-08-07T04:34:17.187Z,26.30
2022-08-07T04:36:52.548Z,26.30
2022-08-07T04:39:25.422Z,26.30
2022-08-07T04:41:54.296Z,26.30
2022-08-07T04:44:22.462Z,26.30
2022-08-07T04:47:04.494Z,26.40
2022-08-07T04:49:57.529Z,26.40
2022-08-07T04:52:30.242Z,26.30
2022-08-07T04:55:00.928Z,26.30
2022-08-07T04:58:10.760Z,26.30
2022-08-07T05:00:31.492Z,26.30
2022-08-07T05:03:03.716Z,26.30
2022-08-07T05:05:53.113Z,26.30
2022-08-07T05:08:58.910Z,26.30
2022-08-07T05:11:19.583Z,26.30
2022-08-07T05:14:56.259Z,26.30
2022-08-07T05:16:44.094Z,26.40
2022-08-07T05:19:17.122Z,26.40
2022-08-07T05:22:00.063Z,26.40
2022-08-07T05:24:30.594Z,26.40
2022-08-07T05:27:16.884Z,26.50
2022-08-07T05:29:58.124Z,26.50
2022-08-07T05:32:27.102Z,26.50
2022-08-07T05:34:56.653Z,26.50
2022-08-07T05:37:25.284Z,26.60
2022-08-07T05:40:06.030Z,26.60
2022-08-07T05:42:42.241Z,26.60
2022-08-07T05:45:47.118Z,26.60
2022-08-07T05:48:12.876Z,26.70
2022-08-07T05:50:43.386Z,26.70
2022-08-07T05:54:13.570Z,26.70
2022-08-07T05:56:01.998Z,26.80
2022-08-07T05:58:36.620Z,26.80
2022-08-07T06:01:08.364Z,26.80
2022-08-07T06:03:57.189Z,26.90
2022-08-07T06:06:29.728Z,27.00
2022-08-07T06:09:01.232Z,27.10
2022-08-07T06:11:33.764Z,27.10
2022-08-07T06:14:11.703Z,27.10
2022-08-07T06:16:42.246Z,27.20
2022-08-07T06:19:17.947Z,27.20
2022-08-07T06:22:16.437Z,27.30
2022-08-07T06:24:52.380Z,27.30
2022-08-07T06:27:59.768Z,27.30
2022-08-07T06:30:35.167Z,27.40
2022-08-07T06:33:02.199Z,27.40
2022-08-07T06:35:39.308Z,27.40
2022-08-07T06:38:20.095Z,27.50
2022-08-07T06:40:51.103Z,27.50
2022-08-07T06:43:21.474Z,27.50
2022-08-07T06:45:50.561Z,27.60
2022-08-07T06:48:25.124Z,27.60
2022-08-07T06:50:54.119Z,27.60
2022-08-07T06:55:29.609Z,27.60
2022-08-07T06:56:15.306Z,27.70
2022-08-07T07:00:13.122Z,27.70
2022-08-07T07:01:38.825Z,27.70
2022-08-07T07:04:28.299Z,27.70
2022-08-07T07:07:01.896Z,27.70
2022-08-07T07:09:45.414Z,27.70
2022-08-07T07:12:26.681Z,27.70
2022-08-07T07:15:03.271Z,27.80
2022-08-07T07:17:38.982Z,27.80
2022-08-07T07:20:20.492Z,27.80
2022-08-07T07:24:05.460Z,27.80
2022-08-07T07:26:33.236Z,27.80
2022-08-07T07:28:48.440Z,27.80
2022-08-07T07:31:25.036Z,27.80
2022-08-07T07:34:00.851Z,27.80
2022-08-07T07:36:32.439Z,27.80
2022-08-07T07:39:01.757Z,27.80
2022-08-07T07:41:50.695Z,27.90
2022-08-07T07:44:25.909Z,27.90
2022-08-07T07:47:15.881Z,27.90
2022-08-07T07:50:33.020Z,27.90
2022-08-07T07:52:41.420Z,27.90
2022-08-07T07:55:11.451Z,27.90
2022-08-07T07:57:52.402Z,27.90
2022-08-07T08:00:29.892Z,27.90
2022-08-07T08:03:06.877Z,27.90
2022-08-07T08:05:51.040Z,27.90
2022-08-07T08:08:34.308Z,27.90
2022-08-07T08:11:08.064Z,27.90
2022-08-07T08:13:55.461Z,27.90
2022-08-07T08:16:29.858Z,27.90
2022-08-07T08:19:00.403Z,27.90
2022-08-07T08:22:03.038Z,27.90
2022-08-07T08:25:04.509Z,27.90
2022-08-07T08:27:55.905Z,27.80
2022-08-07T08:30:27.810Z,27.80
2022-08-07T08:32:58.752Z,27.80
2022-08-07T08:35:42.865Z,27.80
2022-08-07T08:38:16.323Z,27.80
2022-08-07T08:40:47.760Z,27.80
2022-08-07T08:43:18.263Z,27.80
2022-08-07T08:46:00.598Z,27.80
2022-08-07T08:48:38.392Z,27.90
2022-08-07T08:51:14.630Z,27.80
2022-08-07T08:53:58.162Z,27.90
2022-08-07T08:56:30.238Z,27.90
2022-08-07T08:59:06.296Z,27.90
2022-08-07T09:01:44.222Z,27.90
2022-08-07T09:04:26.000Z,27.90
2022-08-07T09:07:00.576Z,27.90
2022-08-07T09:09:56.516Z,27.90
2022-08-07T09:12:33.241Z,27.90
2022-08-07T09:16:22.557Z,27.90
2022-08-07T09:18:26.589Z,27.90
2022-08-07T09:21:01.356Z,27.80
2022-08-07T09:24:30.793Z,27.90
2022-08-07T09:26:26.330Z,27.90
2022-08-07T09:30:05.238Z,27.90
2022-08-07T09:31:56.102Z,27.90
2022-08-07T09:34:30.124Z,27.90
2022-08-07T09:37:02.246Z,27.90
2022-08-07T09:39:53.668Z,27.90
2022-08-07T09:42:37.905Z,28.00
2022-08-07T09:47:50.851Z,27.90
2022-08-07T09:48:12.274Z,28.00
2022-08-07T09:50:52.598Z,28.00
2022-08-07T09:53:22.542Z,28.00
2022-08-07T09:56:09.234Z,28.00
2022-08-07T09:58:58.830Z,28.00
2022-08-07T10:01:51.481Z,27.90
2022-08-07T10:04:47.795Z,28.00
2022-08-07T10:07:53.118Z,28.00
2022-08-07T10:10:25.181Z,28.00
2022-08-07T10:13:55.250Z,28.00
2022-08-07T10:16:14.288Z,28.00
2022-08-07T10:18:58.860Z,28.00
2022-08-07T10:22:12.314Z,28.00
2022-08-07T10:24:33.361Z,28.00
2022-08-07T10:27:12.397Z,28.00
2022-08-07T10:29:59.603Z,28.10
2022-08-07T10:32:59.450Z,28.10
2022-08-07T10:35:56.259Z,28.10
2022-08-07T10:38:36.148Z,28.10
2022-08-07T10:41:54.724Z,28.20
2022-08-07T10:44:13.544Z,28.10
2022-08-07T10:46:47.904Z,28.10
2022-08-07T10:49:45.310Z,28.10
2022-08-07T10:52:14.612Z,28.20
2022-08-07T10:55:01.067Z,28.20
2022-08-07T10:57:40.733Z,28.20
2022-08-07T11:00:36.892Z,28.20
2022-08-07T11:03:01.367Z,28.20
2022-08-07T11:05:44.918Z,28.20
2022-08-07T11:08:23.537Z,28.20
2022-08-07T11:11:03.212Z,28.20
2022-08-07T11:14:45.852Z,28.30
2022-08-07T11:16:30.659Z,28.20
2022-08-07T11:19:02.439Z,28.20
2022-08-07T11:21:40.771Z,28.30
2022-08-07T11:24:13.433Z,28.30
2022-08-07T11:26:49.908Z,28.30
2022-08-07T11:29:42.896Z,28.30
2022-08-07T11:32:25.649Z,28.30
2022-08-07T11:34:58.714Z,28.40
2022-08-07T11:37:58.067Z,28.40
2022-08-07T11:40:35.822Z,28.30
2022-08-07T11:43:07.615Z,28.40
2022-08-07T11:45:53.125Z,28.40
2022-08-07T11:48:29.476Z,28.40
2022-08-07T11:51:10.526Z,28.40
2022-08-07T11:54:03.149Z,28.40
2022-08-07T11:56:46.710Z,28.40
2022-08-07T12:00:11.063Z,28.40
2022-08-07T12:02:35.178Z,28.40
2022-08-07T12:05:15.231Z,28.40
2022-08-07T12:08:03.990Z,28.50
2022-08-07T12:10:36.392Z,28.50
2022-08-07T12:13:16.815Z,28.50
2022-08-07T12:16:07.081Z,28.50
2022-08-07T12:18:45.217Z,28.50
2022-08-07T12:21:21.043Z,28.50
2022-08-07T12:24:37.089Z,28.50
2022-08-07T12:27:00.253Z,28.60
2022-08-07T12:29:37.786Z,28.50
2022-08-07T12:32:15.379Z,28.60
2022-08-07T12:34:49.388Z,28.60
2022-08-07T12:37:23.381Z,28.60
2022-08-07T12:39:57.475Z,28.60
2022-08-07T12:42:28.596Z,28.60
2022-08-07T12:45:06.404Z,28.60
2022-08-07T12:47:39.826Z,28.60
2022-08-07T12:50:39.563Z,28.60
2022-08-07T12:53:05.354Z,28.60
2022-08-07T12:56:03.631Z,28.60
2022-08-07T12:58:39.690Z,28.60
2022-08-07T13:01:13.981Z,28.60
2022-08-07T13:04:00.629Z,28.70
2022-08-07T13:06:54.481Z,28.60
2022-08-07T13:10:20.542Z,28.70
2022-08-07T13:12:47.496Z,28.70
2022-08-07T13:15:29.695Z,28.70
2022-08-07T13:18:26.049Z,28.70
2022-08-07T13:20:58.773Z,28.70
2022-08-07T13:24:01.194Z,28.70
2022-08-07T13:26:27.750Z,28.70
2022-08-07T13:29:03.237Z,28.70
2022-08-07T13:31:54.912Z,28.70
2022-08-07T13:34:39.513Z,28.70
2022-08-07T13:37:20.706Z,28.70
2022-08-07T13:40:35.062Z,28.70
2022-08-07T13:43:00.898Z,28.70
2022-08-07T13:46:12.454Z,28.70
2022-08-07T13:48:27.356Z,28.80
2022-08-07T13:51:00.242Z,28.70
2022-08-07T13:53:49.978Z,28.70
2022-08-07T13:56:35.941Z,28.70
2022-08-07T13:59:13.086Z,28.80
2022-08-07T14:01:51.203Z,28.60
2022-08-07T14:04:36.203Z,28.80
2022-08-07T14:07:09.410Z,28.80
2022-08-07T14:10:02.166Z,28.80
2022-08-07T14:12:36.122Z,28.80
2022-08-07T14:15:12.194Z,28.80
2022-08-07T14:18:23.522Z,28.80
2022-08-07T14:20:42.442Z,28.80
2022-08-07T14:23:31.141Z,28.80
2022-08-07T14:26:08.453Z,28.80
2022-08-07T14:28:57.342Z,28.80
2022-08-07T14:31:42.307Z,28.80
2022-08-07T14:34:20.227Z,28.80
2022-08-07T14:36:56.314Z,28.80
2022-08-07T14:40:14.651Z,28.80
2022-08-07T14:42:20.287Z,28.80
2022-08-07T14:44:54.094Z,28.80
2022-08-07T14:47:28.488Z,28.80
2022-08-07T14:49:59.195Z,28.80
2022-08-07T14:52:29.048Z,28.80
2022-08-07T14:54:59.066Z,28.80
2022-08-07T14:57:28.984Z,28.80
2022-08-07T15:00:20.587Z,28.80
2022-08-07T15:02:56.767Z,28.80
2022-08-07T15:05:25.500Z,28.80
2022-08-07T15:07:54.021Z,28.80
2022-08-07T15:10:26.323Z,28.80
2022-08-07T15:12:58.032Z,28.70
2022-08-07T15:15:38.535Z,28.70
2022-08-07T15:18:14.531Z,28.70
2022-08-07T15:20:58.809Z,28.70
2022-08-07T15:25:12.791Z,28.70
2022-08-07T15:26:28.766Z,28.70
2022-08-07T15:30:02.205Z,28.70
2022-08-07T15:34:37.171Z,28.70
2022-08-07T15:37:06.667Z,28.70
2022-08-07T15:42:51.561Z,28.70
2022-08-07T15:48:22.085Z,28.70
2022-08-07T15:51:08.590Z,28.60
2022-08-07T15:53:52.285Z,28.60
2022-08-07T15:56:25.938Z,28.60
2022-08-07T15:58:57.942Z,28.60
2022-08-07T16:01:39.407Z,28.60
2022-08-07T16:04:14.704Z,28.60
2022-08-07T16:06:44.791Z,28.60
2022-08-07T16:09:22.353Z,28.60
2022-08-07T16:12:12.049Z,28.50
2022-08-07T16:15:03.311Z,28.60
2022-08-07T16:18:01.839Z,28.50
2022-08-07T16:20:41.601Z,28.50
2022-08-07T16:23:53.614Z,28.50
2022-08-07T16:26:34.121Z,28.50
2022-08-07T16:30:08.641Z,28.50
2022-08-07T16:31:58.519Z,28.50
2022-08-07T16:34:45.348Z,28.50
2022-08-07T16:38:03.012Z,28.50
2022-08-07T16:40:36.080Z,28.50
2022-08-07T16:43:08.939Z,28.40
2022-08-07T16:46:40.692Z,28.40
2022-08-07T16:50:20.404Z,28.40
2022-08-07T16:52:51.990Z,28.40
2022-08-07T16:55:13.183Z,28.40
2022-08-07T16:58:03.242Z,28.40
2022-08-07T17:00:39.293Z,28.40
2022-08-07T17:03:18.963Z,28.40
2022-08-07T17:06:28.566Z,28.40
2022-08-07T17:09:10.762Z,28.30
2022-08-07T17:12:03.980Z,28.30
2022-08-07T17:14:51.515Z,28.30
2022-08-07T17:17:50.064Z,28.30
2022-08-07T17:20:30.911Z,28.30
2022-08-07T17:23:12.868Z,28.30
2022-08-07T17:25:53.247Z,28.30
2022-08-07T17:28:55.929Z,28.30
2022-08-07T17:31:27.495Z,28.30
2022-08-07T17:34:34.247Z,28.20
2022-08-07T17:37:14.491Z,28.20
2022-08-07T17:40:03.407Z,28.20
2022-08-07T17:42:59.371Z,28.20
2022-08-07T17:45:35.103Z,28.20
2022-08-07T17:48:06.733Z,28.20
2022-08-07T17:50:52.547Z,28.20
2022-08-07T17:53:54.204Z,28.10
2022-08-07T17:56:26.202Z,28.20
2022-08-07T17:59:05.522Z,28.20
2022-08-07T18:01:48.425Z,28.10
2022-08-07T18:04:31.275Z,28.10
2022-08-07T18:07:20.281Z,28.10
2022-08-07T18:10:06.273Z,28.10
2022-08-07T18:12:43.456Z,28.10
2022-08-07T18:15:13.588Z,28.10
2022-08-07T18:18:36.503Z,28.10
2022-08-07T18:21:07.460Z,28.10
2022-08-07T18:23:43.274Z,28.10
2022-08-07T18:26:16.414Z,28.10
2022-08-07T18:28:58.345Z,28.10
2022-08-07T18:31:40.609Z,28.00
2022-08-07T18:34:39.405Z,28.10
2022-08-07T18:37:11.083Z,28.00
2022-08-07T18:40:07.974Z,28.00
2022-08-07T18:42:43.302Z,28.00
2022-08-07T18:45:43.678Z,28.00
2022-08-07T18:48:06.669Z,28.00
2022-08-07T18:50:49.545Z,27.90
2022-08-07T18:53:37.084Z,27.90
2022-08-07T18:56:14.125Z,28.00
2022-08-07T18:59:03.914Z,27.90
2022-08-07T19:02:32.159Z,27.90
2022-08-07T19:04:38.903Z,27.90
2022-08-07T19:07:34.946Z,27.90
2022-08-07T19:10:14.864Z,27.90
2022-08-07T19:12:59.406Z,27.90
2022-08-07T19:16:04.375Z,27.80
2022-08-07T19:21:08.932Z,27.80
2022-08-07T19:23:59.424Z,27.80
2022-08-07T19:26:55.435Z,27.90
2022-08-07T19:31:05.679Z,27.80
2022-08-07T19:32:26.541Z,27.80
2022-08-07T19:35:02.761Z,27.80
2022-08-07T19:37:55.334Z,27.80
2022-08-07T19:40:31.739Z,27.80
2022-08-07T19:43:02.518Z,27.80
2022-08-07T19:46:05.456Z,27.80
2022-08-07T19:48:24.535Z,27.70
2022-08-07T19:50:53.752Z,27.70
2022-08-07T19:54:31.487Z,27.70
2022-08-07T19:58:00.653Z,27.70
2022-08-07T19:59:18.074Z,27.70
2022-08-07T20:01:52.989Z,27.70
2022-08-07T20:04:32.177Z,27.60
2022-08-07T20:07:10.085Z,27.70
2022-08-07T20:10:35.140Z,27.60
2022-08-07T20:12:34.680Z,27.60
2022-08-07T20:15:04.190Z,27.60
2022-08-07T20:17:38.555Z,27.60
2022-08-07T20:20:15.575Z,27.60
2022-08-07T20:22:47.110Z,27.60
2022-08-07T20:25:19.769Z,27.60
2022-08-07T20:27:58.260Z,27.60
2022-08-07T20:30:31.244Z,27.60
2022-08-07T20:32:59.724Z,27.60
2022-08-07T20:35:34.223Z,27.40
2022-08-07T20:38:06.317Z,27.60
2022-08-07T20:40:40.553Z,27.60
2022-08-07T20:43:25.243Z,27.50
2022-08-07T20:46:29.629Z,27.60
2022-08-07T20:49:54.582Z,27.50
2022-08-07T20:51:35.783Z,27.50
2022-08-07T20:54:12.198Z,27.50
2022-08-07T20:56:46.235Z,27.50
2022-08-07T21:00:04.291Z,27.50
2022-08-07T21:02:31.373Z,27.50
2022-08-07T21:05:00.182Z,27.40
2022-08-07T21:07:28.359Z,27.50
2022-08-07T21:09:59.082Z,27.50
2022-08-07T21:12:31.407Z,27.50
2022-08-07T21:15:02.815Z,27.50
2022-08-07T21:18:06.173Z,27.40
2022-08-07T21:20:26.544Z,27.40
2022-08-07T21:23:07.573Z,27.40
2022-08-07T21:25:56.374Z,27.40
2022-08-07T21:28:50.399Z,27.40
2022-08-07T21:31:49.193Z,27.50
2022-08-07T21:34:20.631Z,27.40
2022-08-07T21:36:51.823Z,27.40
2022-08-07T21:39:45.357Z,27.40
2022-08-07T21:42:40.899Z,27.40
2022-08-07T21:46:08.603Z,27.30
2022-08-07T21:48:04.265Z,27.40
2022-08-07T21:50:36.823Z,27.40
2022-08-07T21:53:08.558Z,27.40
2022-08-07T21:55:41.052Z,27.40
2022-08-07T21:58:32.469Z,27.40
2022-08-07T22:01:04.205Z,27.30
2022-08-07T22:03:41.003Z,27.30
2022-08-07T22:06:29.127Z,27.30
2022-08-07T22:09:02.442Z,27.30
2022-08-07T22:12:05.935Z,27.30
2022-08-07T22:14:36.068Z,27.30
2022-08-07T22:17:05.943Z,27.30
2022-08-07T22:19:39.774Z,27.30
2022-08-07T22:22:21.072Z,27.30
2022-08-07T22:25:12.063Z,27.30
2022-08-07T22:28:02.915Z,27.30
2022-08-07T22:30:51.938Z,27.30
2022-08-07T22:33:53.179Z,27.30
2022-08-07T22:36:18.176Z,27.30
2022-08-07T22:38:51.784Z,27.20
2022-08-07T22:41:21.948Z,27.30
2022-08-07T22:44:12.790Z,27.30
2022-08-07T22:47:04.119Z,27.30
2022-08-07T22:50:21.030Z,27.20
2022-08-07T22:53:09.337Z,27.20
2022-08-07T22:55:48.270Z,27.20
2022-08-07T22:58:34.291Z,27.20
2022-08-07T23:01:16.511Z,27.20
2022-08-07T23:03:58.061Z,27.20
2022-08-07T23:06:40.898Z,27.20
2022-08-07T23:10:05.525Z,27.20
2022-08-07T23:12:34.427Z,27.20
2022-08-07T23:15:08.799Z,27.20
2022-08-07T23:17:57.653Z,27.20
2022-08-07T23:20:51.101Z,27.20
2022-08-07T23:24:05.934Z,27.10
2022-08-07T23:26:54.801Z,27.10
2022-08-07T23:30:37.608Z,27.20
2022-08-07T23:34:19.694Z,27.10
2022-08-07T23:35:39.592Z,27.20
2022-08-07T23:38:19.051Z,27.10
2022-08-07T23:40:49.395Z,27.10
2022-08-07T23:43:44.467Z,27.20
2022-08-07T23:46:24.031Z,27.10
2022-08-07T23:49:25.084Z,27.10
2022-08-07T23:53:00.015Z,27.10
2022-08-07T23:55:51.809Z,27.10
2022-08-07T23:58:21.451Z,27.10
